Time;durP1;ratioP1;P1;durP2;ratioP2;P2;SDS_P1;SDS_P2;PMS_P1;PMS_P2;Temp;Humidity;BMP_temperature;BMP_pressure;BME280_temperature;BME280_humidity;BME280_pressure;Samples;Min_cycle;Max_cycle;Signal;HPM_P1;HPM_P2
2021/12/20 00:01:36;;;;;;;6.85;5.03;;;;;;;-2.07;71.94;98114.66;4935291;29;20098;-83
2021/12/20 00:04:02;;;;;;;7.15;5.40;;;;;;;-2.05;71.77;98131.97;4918232;29;20083;-83
2021/12/20 00:06:28;;;;;;;7.47;5.93;;;;;;;-2.03;72.16;98121.44;4918345;29;20424;-83
2021/12/20 00:08:54;;;;;;;6.78;4.60;;;;;;;-1.96;71.82;98135.91;4918269;29;20130;-84
2021/12/20 00:11:20;;;;;;;6.38;4.55;;;;;;;-2.03;71.47;98137.13;4918198;29;20110;-84
2021/12/20 00:13:46;;;;;;;6.40;5.18;;;;;;;-2.05;71.81;98136.38;4900602;29;20499;-86
2021/12/20 00:16:12;;;;;;;7.95;5.53;;;;;;;-2.07;71.91;98133.84;4899507;29;20048;-82
2021/12/20 00:18:38;;;;;;;9.15;5.20;;;;;;;-1.98;72.18;98137.78;4915016;29;20135;-82
2021/12/20 00:21:03;;;;;;;8.25;5.57;;;;;;;-1.91;71.71;98149.66;4917860;29;20082;-84
2021/12/20 00:23:30;;;;;;;8.48;5.97;;;;;;;-1.92;71.42;98137.47;4918273;29;20416;-81
2021/12/20 00:25:56;;;;;;;6.88;5.60;;;;;;;-1.87;71.43;98138.09;4886756;29;20130;-82
2021/12/20 00:28:22;;;;;;;7.43;5.40;;;;;;;-1.86;71.11;98137.19;4903268;29;20080;-83
2021/12/20 00:30:48;;;;;;;5.82;4.40;;;;;;;-1.85;71.23;98149.34;4902522;29;20083;-82
2021/12/20 00:33:14;;;;;;;4.97;3.88;;;;;;;-1.89;71.21;98149.56;4902574;29;20059;-83
2021/12/20 00:35:40;;;;;;;5.93;4.85;;;;;;;-2.01;71.12;98132.69;4902564;29;20044;-82
2021/12/20 00:40:50;;;;;;;9.30;5.93;;;;;;;-1.92;71.06;98137.47;4902126;29;20499;-83
2021/12/20 00:43:16;;;;;;;6.30;4.85;;;;;;;-1.90;71.03;98145.25;4919053;29;20046;-82
2021/12/20 00:45:42;;;;;;;7.57;5.80;;;;;;;-1.88;70.72;98122.44;4902307;29;20134;-81
2021/12/20 00:48:08;;;;;;;7.78;5.70;;;;;;;-1.93;70.71;98127.91;4902160;29;20277;-83
2021/12/20 00:50:35;;;;;;;8.60;5.88;;;;;;;-1.83;70.41;98125.72;4917860;29;20110;-82
2021/12/20 00:53:01;;;;;;;7.10;5.25;;;;;;;-1.86;70.95;98131.94;4886435;29;20052;-82
2021/12/20 00:55:28;;;;;;;7.82;5.78;;;;;;;-1.83;70.85;98128.31;4918143;29;20514;-83
2021/12/20 00:57:55;;;;;;;6.75;5.20;;;;;;;-1.85;70.67;98120.53;4902507;29;20044;-83
2021/12/20 01:00:24;;;;;;;7.85;5.47;;;;;;;-1.84;70.71;98124.88;4886565;29;20044;-81
2021/12/20 01:02:51;;;;;;;9.05;4.85;;;;;;;-1.91;70.33;98113.00;4887260;29;20051;-83
2021/12/20 01:05:17;;;;;;;8.63;4.65;;;;;;;-1.85;70.64;98123.16;4887129;29;20047;-82
2021/12/20 01:07:43;;;;;;;6.35;5.00;;;;;;;-1.91;71.16;98143.56;4902740;29;20076;-82
2021/12/20 01:10:10;;;;;;;7.60;4.93;;;;;;;-1.97;70.72;98123.75;4871506;29;20052;-81
2021/12/20 01:12:50;;;;;;;7.65;5.50;;;;;;;-1.89;71.01;98132.09;4902328;29;20059;-82
2021/12/20 01:15:22;;;;;;;7.20;5.45;;;;;;;-1.87;70.83;98125.00;4896241;29;20583;-84
2021/12/20 01:17:49;;;;;;;7.57;5.57;;;;;;;-1.78;70.96;98121.91;4873835;29;20086;-82
2021/12/20 01:20:15;;;;;;;8.57;6.03;;;;;;;-1.67;71.16;98118.78;4905901;29;20098;-83
2021/12/20 01:22:42;;;;;;;10.02;6.00;;;;;;;-1.58;70.71;98114.84;4924638;29;20048;-82
2021/12/20 01:25:09;;;;;;;10.57;7.18;;;;;;;-1.59;70.53;98123.63;4918681;29;20063;-84
2021/12/20 01:27:35;;;;;;;11.18;7.28;;;;;;;-1.57;70.47;98121.78;4901561;29;20040;-83
2021/12/20 01:30:01;;;;;;;10.07;7.60;;;;;;;-1.64;70.62;98125.66;4902349;29;20096;-83
2021/12/20 01:32:28;;;;;;;13.20;8.20;;;;;;;-1.54;70.59;98121.66;4886394;29;20056;-83
2021/12/20 01:34:54;;;;;;;12.75;8.73;;;;;;;-1.55;70.50;98128.63;4887045;29;20136;-82
2021/12/20 01:37:20;;;;;;;11.15;7.53;;;;;;;-1.50;70.67;98117.94;4917172;29;20108;-83
2021/12/20 01:39:46;;;;;;;10.95;7.68;;;;;;;-1.41;70.39;98122.69;4901926;29;20115;-84
2021/12/20 01:42:17;;;;;;;12.82;8.65;;;;;;;-1.45;70.28;98110.69;4917710;29;20051;-84
2021/12/20 01:44:43;;;;;;;11.60;8.70;;;;;;;-1.43;70.08;98108.81;4917477;29;20050;-82
2021/12/20 01:47:09;;;;;;;13.23;8.35;;;;;;;-1.37;69.89;98105.88;4901979;29;20048;-84
2021/12/20 01:49:43;;;;;;;14.68;8.60;;;;;;;-1.37;70.06;98095.41;4917823;29;20044;-84
2021/12/20 01:52:14;;;;;;;10.68;7.97;;;;;;;-1.44;69.92;98101.03;4901584;29;20496;-83
2021/12/20 01:54:40;;;;;;;14.38;9.45;;;;;;;-1.47;69.78;98095.03;4901417;29;20043;-82
2021/12/20 01:57:06;;;;;;;11.20;8.40;;;;;;;-1.50;70.39;98092.56;4917051;29;20489;-82
2021/12/20 01:59:33;;;;;;;12.95;8.65;;;;;;;-1.43;70.33;98100.94;4916968;29;20468;-82
2021/12/20 02:01:58;;;;;;;10.93;7.82;;;;;;;-1.80;70.83;98096.75;4885314;29;20496;-82
2021/12/20 02:04:26;;;;;;;11.23;8.23;;;;;;;-1.76;71.11;98096.50;4916763;29;20188;-84
2021/12/20 02:06:52;;;;;;;12.98;8.88;;;;;;;-1.74;70.83;98109.53;4900608;29;20040;-84
2021/12/20 02:09:19;;;;;;;15.95;10.00;;;;;;;-1.66;71.04;98101.28;4916345;29;20147;-84
2021/12/20 02:11:49;;;;;;;15.40;9.98;;;;;;;-1.69;71.23;98117.16;4884965;29;20530;-83
2021/12/20 02:14:16;;;;;;;17.52;10.20;;;;;;;-1.68;70.87;98118.88;4919264;29;20514;-85
2021/12/20 02:16:43;;;;;;;17.88;9.65;;;;;;;-1.66;70.84;98119.63;4904955;29;20090;-82
2021/12/20 02:19:11;;;;;;;16.75;10.20;;;;;;;-1.74;71.26;98110.38;4919860;29;20130;-82
2021/12/20 02:21:36;;;;;;;18.20;10.50;;;;;;;-1.69;71.21;98117.16;4919104;29;20058;-82
2021/12/20 02:24:03;;;;;;;18.10;10.50;;;;;;;-1.64;71.61;98099.44;4919004;29;20055;-83
2021/12/20 02:26:29;;;;;;;14.80;9.05;;;;;;;-1.77;71.24;98102.69;4903116;29;20046;-83
2021/12/20 02:29:00;;;;;;;21.10;12.02;;;;;;;-1.81;71.50;98095.88;4903308;29;20044;-82
2021/12/20 02:37:15;;;;;;;23.05;12.63;;;;;;;-1.66;71.57;98077.69;4903214;29;20048;-83
2021/12/20 02:39:42;;;;;;;19.73;10.52;;;;;;;-1.76;71.95;98078.19;4903037;29;20219;-83
2021/12/20 02:42:11;;;;;;;17.75;11.18;;;;;;;-1.71;72.31;98077.94;4935327;29;20467;-81
2021/12/20 02:44:41;;;;;;;23.33;11.57;;;;;;;-1.71;72.50;98070.91;4919297;29;20059;-82
2021/12/20 02:47:14;;;;;;;20.95;11.38;;;;;;;-1.69;72.28;98075.22;4918860;29;20062;-85
2021/12/20 02:49:41;;;;;;;19.80;11.02;;;;;;;-1.66;72.62;98077.69;4935825;29;20071;-84
2021/12/20 02:52:08;;;;;;;19.52;10.40;;;;;;;-1.91;73.45;98067.63;4919215;29;20048;-83
2021/12/20 02:54:35;;;;;;;20.65;10.77;;;;;;;-1.89;73.35;98055.28;4918950;29;20078;-83
2021/12/20 02:57:01;;;;;;;19.90;10.43;;;;;;;-1.75;73.15;98040.56;4902566;29;20052;-86
2021/12/20 02:59:27;;;;;;;18.33;9.98;;;;;;;-1.65;72.68;98051.44;4902424;29;20055;-85
2021/12/20 03:01:58;;;;;;;15.70;9.60;;;;;;;-1.66;72.76;98048.88;4938726;29;20047;-84
2021/12/20 03:04:25;;;;;;;14.40;9.15;;;;;;;-1.73;72.57;98043.97;4903254;29;20059;-85
2021/12/20 03:06:55;;;;;;;17.33;9.68;;;;;;;-1.71;72.90;98044.72;4919140;29;20491;-87
2021/12/20 03:09:27;;;;;;;17.30;10.00;;;;;;;-1.75;72.75;98040.56;4900686;29;20139;-86
2021/12/20 03:11:55;;;;;;;17.40;9.50;;;;;;;-1.80;72.89;98029.50;4900750;29;20051;-87
2021/12/20 03:14:27;;;;;;;14.85;9.15;;;;;;;-1.69;72.84;98035.94;4886454;29;20068;-86
2021/12/20 03:16:54;;;;;;;12.32;8.40;;;;;;;-1.75;72.57;98019.63;4921484;29;20059;-86
2021/12/20 03:19:19;;;;;;;13.07;8.48;;;;;;;-1.83;72.42;98032.25;4917955;29;20116;-85
2021/12/20 03:21:46;;;;;;;13.50;9.00;;;;;;;-1.84;72.83;98055.91;4919857;29;20071;-91
2021/12/20 03:24:12;;;;;;;19.13;9.98;;;;;;;-1.81;73.08;98035.63;4919787;29;20095;-87
2021/12/20 03:26:38;;;;;;;17.55;9.82;;;;;;;-1.83;72.65;98047.97;4901764;29;20076;-90
2021/12/20 03:29:04;;;;;;;14.57;8.88;;;;;;;-1.77;72.70;98063.38;4885501;29;20571;-88
2021/12/20 03:31:30;;;;;;;12.35;8.50;;;;;;;-1.85;72.42;98055.06;4900124;29;20087;-83
2021/12/20 03:33:56;;;;;;;14.85;8.73;;;;;;;-1.82;72.70;98061.91;4900052;29;20068;-88
2021/12/20 03:36:23;;;;;;;11.23;7.63;;;;;;;-1.80;72.66;98042.59;4884905;29;20047;-89
2021/12/20 03:38:50;;;;;;;13.13;7.75;;;;;;;-1.86;72.43;98037.66;4876946;29;20064;-85
2021/12/20 03:41:16;;;;;;;9.77;6.55;;;;;;;-1.87;72.64;98042.97;4863770;29;20048;-86
2021/12/20 03:43:42;;;;;;;12.55;8.15;;;;;;;-1.86;72.90;98042.03;4895824;29;20061;-84
2021/12/20 03:46:08;;;;;;;11.10;8.00;;;;;;;-1.81;72.65;98034.78;4895768;29;20065;-88
2021/12/20 03:48:35;;;;;;;10.63;7.50;;;;;;;-1.75;72.26;98051.03;4895278;29;20475;-87
2021/12/20 03:51:01;;;;;;;9.23;6.78;;;;;;;-1.78;72.08;98045.97;4880368;29;20084;-87
2021/12/20 03:53:28;;;;;;;9.80;6.65;;;;;;;-1.67;72.33;98052.44;4896836;29;20072;-88
2021/12/20 03:55:55;;;;;;;14.63;8.88;;;;;;;-1.65;72.01;98046.19;4898740;29;20036;-87
2021/12/20 03:58:21;;;;;;;14.52;9.13;;;;;;;-1.63;71.77;98053.97;4883653;29;20489;-86
2021/12/20 04:00:48;;;;;;;14.85;9.88;;;;;;;-1.66;72.10;98033.16;4899117;29;20479;-89
2021/12/20 04:03:15;;;;;;;10.85;8.20;;;;;;;-1.62;71.88;98053.88;4898991;29;20053;-89
2021/12/20 04:05:41;;;;;;;11.73;8.45;;;;;;;-1.60;71.44;98053.81;4883592;29;20090;-78
2021/12/20 04:08:07;;;;;;;9.75;6.57;;;;;;;-1.82;71.86;98054.91;4899662;29;20566;-83
2021/12/20 04:10:34;;;;;;;7.47;5.43;;;;;;;-2.00;72.69;98045.34;4900583;29;20137;-90
2021/12/20 04:13:00;;;;;;;11.13;8.30;;;;;;;-1.77;73.83;98050.28;4882968;29;20048;-88
2021/12/20 04:15:26;;;;;;;10.93;6.88;;;;;;;-1.68;72.46;98050.75;4906116;29;20052;-92
2021/12/20 04:17:52;;;;;;;11.10;7.72;;;;;;;-1.69;72.26;98049.03;4922531;29;20039;-89
2021/12/20 04:20:18;;;;;;;6.85;4.95;;;;;;;-1.69;72.69;98064.75;4908572;29;20044;-90
2021/12/20 04:22:45;;;;;;;10.52;7.57;;;;;;;-1.65;72.10;98068.94;4942163;29;20056;-90
2021/12/20 04:25:11;;;;;;;9.00;6.55;;;;;;;-1.63;72.43;98072.31;4925461;29;20051;-89
2021/12/20 04:27:37;;;;;;;12.40;8.20;;;;;;;-1.69;72.50;98070.00;4938363;29;20503;-88
2021/12/20 04:30:09;;;;;;;10.43;6.30;;;;;;;-1.70;72.77;98066.53;4924577;29;20585;-86
2021/12/20 04:32:36;;;;;;;8.10;5.85;;;;;;;-1.68;72.52;98056.81;4893684;29;20509;-90
2021/12/20 04:35:03;;;;;;;8.10;6.22;;;;;;;-1.58;72.42;98057.19;4938510;29;20086;-85
2021/12/20 04:37:41;;;;;;;8.27;6.50;;;;;;;-1.58;72.38;98057.19;4907917;29;20043;-86
2021/12/20 04:40:12;;;;;;;8.93;6.60;;;;;;;-1.59;72.22;98045.03;4923058;29;20058;-87
2021/12/20 04:42:38;;;;;;;10.30;7.53;;;;;;;-1.51;72.22;98041.06;4922652;29;20051;-89
2021/12/20 04:45:05;;;;;;;11.50;7.32;;;;;;;-1.47;72.13;98044.38;4906263;29;20043;-88
2021/12/20 04:47:31;;;;;;;11.00;5.63;;;;;;;-1.56;72.28;98035.22;4943078;29;20126;-87
2021/12/20 04:49:57;;;;;;;7.55;6.07;;;;;;;-1.51;72.55;98048.09;4908521;29;20047;-84
2021/12/20 04:52:24;;;;;;;9.18;5.82;;;;;;;-1.45;72.53;98042.53;4920962;29;20395;-84
2021/12/20 04:54:51;;;;;;;16.27;5.95;;;;;;;-1.43;72.84;98040.66;4905142;29;20111;-85
2021/12/20 04:57:17;;;;;;;8.85;5.78;;;;;;;-1.39;72.76;98036.09;4921558;29;20198;-88
2021/12/20 04:59:43;;;;;;;7.88;5.50;;;;;;;-1.49;72.99;98025.28;4922377;29;20092;-90
2021/12/20 05:02:09;;;;;;;9.98;5.70;;;;;;;-1.45;73.41;98020.72;4907593;29;20520;-86
2021/12/20 05:04:36;;;;;;;7.13;4.72;;;;;;;-1.42;73.17;98026.66;4939178;29;20563;-87
2021/12/20 05:07:03;;;;;;;8.55;5.63;;;;;;;-1.39;73.53;98020.38;4917188;29;20079;-83
2021/12/20 05:09:36;;;;;;;16.75;5.93;;;;;;;-1.46;73.81;98019.88;4947964;29;20044;-85
2021/12/20 05:12:11;;;;;;;9.98;5.05;;;;;;;-1.39;73.43;98008.16;4938580;29;20479;-86
2021/12/20 05:14:42;;;;;;;6.88;4.60;;;;;;;-1.36;72.63;98010.59;4905832;29;20059;-84
2021/12/20 05:17:09;;;;;;;7.13;5.38;;;;;;;-1.34;72.25;98016.59;4920980;29;20522;-84
2021/12/20 05:19:35;;;;;;;7.78;6.35;;;;;;;-1.27;71.84;98017.97;4919141;29;20495;-89
2021/12/20 05:22:01;;;;;;;10.52;6.05;;;;;;;-1.24;71.19;98030.09;4903638;29;20072;-85
2021/12/20 05:24:27;;;;;;;15.15;6.13;;;;;;;-1.27;71.22;98023.22;4903571;29;20047;-88
2021/12/20 05:26:53;;;;;;;5.82;5.03;;;;;;;-1.27;71.61;98020.59;4935291;29;20050;-86
2021/12/20 05:29:20;;;;;;;10.45;5.53;;;;;;;-1.20;71.44;98025.50;4934748;29;20060;-88
2021/12/20 05:31:46;;;;;;;13.35;6.38;;;;;;;-1.17;71.19;98013.06;4919022;29;20040;-88
2021/12/20 05:34:12;;;;;;;16.27;5.53;;;;;;;-1.05;70.95;98024.69;4908229;29;20043;-90
2021/12/20 05:36:38;;;;;;;8.27;4.78;;;;;;;-1.14;71.13;98020.78;4919084;29;20043;-81
2021/12/20 05:39:04;;;;;;;9.45;5.22;;;;;;;-1.22;71.07;98034.28;4934940;29;20067;-81
2021/12/20 05:41:30;;;;;;;19.23;6.30;;;;;;;-1.23;71.74;98023.91;4905377;29;20039;-91
2021/12/20 05:43:56;;;;;;;23.83;6.10;;;;;;;-1.01;71.97;98032.31;4903926;29;20183;-82
2021/12/20 05:46:22;;;;;;;8.57;5.43;;;;;;;-0.93;70.88;98045.00;4916430;29;20063;-87
2021/12/20 05:48:48;;;;;;;7.30;5.78;;;;;;;-0.95;70.63;98023.25;4901134;29;20055;-89
2021/12/20 05:51:14;;;;;;;8.50;5.85;;;;;;;-0.74;70.85;98029.94;4885993;29;20146;-87
2021/12/20 05:53:40;;;;;;;12.50;5.47;;;;;;;-0.84;70.31;98018.25;4903200;29;20480;-88
2021/12/20 05:56:07;;;;;;;8.82;6.18;;;;;;;-0.86;70.39;98014.06;4903368;29;20512;-85
2021/12/20 05:58:33;;;;;;;45.28;6.28;;;;;;;-0.79;70.63;98034.63;4870562;29;20048;-88
2021/12/20 06:00:59;;;;;;;8.95;5.53;;;;;;;-0.81;70.25;98023.34;4917138;29;20054;-86
2021/12/20 06:03:25;;;;;;;6.25;4.45;;;;;;;-0.77;70.82;98024.03;4873064;29;20051;-86
2021/12/20 06:05:51;;;;;;;10.88;6.50;;;;;;;-0.74;70.88;98013.38;4921024;29;20403;-83
2021/12/20 06:08:17;;;;;;;9.38;5.82;;;;;;;-0.56;71.06;97995.75;4904377;29;20067;-87
2021/12/20 06:10:43;;;;;;;8.30;6.05;;;;;;;-0.56;70.38;98016.75;4920070;29;20521;-83
2021/12/20 06:13:09;;;;;;;10.63;5.90;;;;;;;-0.74;70.76;98019.47;4930231;29;20055;-84
2021/12/20 06:15:35;;;;;;;8.45;5.82;;;;;;;-0.64;70.38;98008.44;4900800;29;20052;-85
2021/12/20 06:18:01;;;;;;;11.18;6.45;;;;;;;-0.26;73.01;98022.88;4916045;29;20047;-85
2021/12/20 06:20:28;;;;;;;9.63;6.05;;;;;;;-0.43;70.49;98001.97;4917156;29;20048;-90
2021/12/20 06:22:57;;;;;;;15.70;7.10;;;;;;;-0.52;70.97;97995.47;4901514;29;20052;-87
2021/12/20 06:25:25;;;;;;;12.82;6.13;;;;;;;-0.53;71.01;98011.31;4917176;29;20071;-93
2021/12/20 06:27:54;;;;;;;21.55;7.55;;;;;;;-0.62;71.25;98001.34;4902427;29;20044;-86
2021/12/20 06:30:20;;;;;;;11.40;7.05;;;;;;;-0.59;71.14;98007.25;4917125;29;20052;-87
2021/12/20 06:32:47;;;;;;;11.30;7.25;;;;;;;-0.53;72.01;97998.19;4918101;29;20099;-86
2021/12/20 06:35:13;;;;;;;17.35;6.45;;;;;;;-0.63;71.45;98003.13;4902883;29;20051;-83
2021/12/20 06:37:42;;;;;;;9.27;5.75;;;;;;;-0.66;72.77;98010.31;4935083;29;20499;-90
2021/12/20 06:40:11;;;;;;;12.07;7.30;;;;;;;-0.70;72.80;98003.53;4919753;29;20039;-89
2021/12/20 06:42:38;;;;;;;10.18;6.05;;;;;;;-0.80;72.94;98003.19;4903475;29;20039;-84
2021/12/20 06:45:07;;;;;;;11.38;5.68;;;;;;;-0.85;73.23;98003.47;4919661;29;20046;-84
2021/12/20 06:47:34;;;;;;;12.68;6.80;;;;;;;-0.90;73.96;98013.38;4908264;29;20043;-90
2021/12/20 06:50:01;;;;;;;11.80;7.00;;;;;;;-0.82;73.64;98021.66;4924544;29;20575;-89
2021/12/20 06:52:28;;;;;;;9.68;6.60;;;;;;;-0.76;74.21;98023.09;4934981;29;20495;-88
2021/12/20 06:54:54;;;;;;;14.10;7.25;;;;;;;-0.65;73.95;98036.47;4920128;29;20044;-87
2021/12/20 06:57:20;;;;;;;6.18;4.97;;;;;;;-0.78;73.90;98002.19;4887638;29;20500;-91
2021/12/20 06:59:47;;;;;;;15.48;6.93;;;;;;;-0.74;74.03;98011.59;4903315;29;20060;-87
2021/12/20 07:02:13;;;;;;;6.05;4.82;;;;;;;-0.82;74.43;97999.81;4904160;29;20496;-85
2021/12/20 07:04:39;;;;;;;9.50;6.07;;;;;;;-0.79;74.60;98018.00;4921689;29;20047;-87
2021/12/20 07:07:05;;;;;;;9.07;6.43;;;;;;;-0.32;78.34;98010.09;4888133;29;20051;-84
2021/12/20 07:09:31;;;;;;;9.15;6.40;;;;;;;-0.25;73.38;97994.84;4927189;29;20063;-89
2021/12/20 07:11:57;;;;;;;11.18;5.70;;;;;;;-0.58;72.44;98005.47;4925852;29;20139;-88
2021/12/20 07:14:26;;;;;;;8.95;6.57;;;;;;;-0.57;73.16;97994.88;4921001;29;20158;-85
2021/12/20 07:16:54;;;;;;;7.72;5.70;;;;;;;-0.47;72.78;98000.47;4919528;29;20127;-86
2021/12/20 07:19:20;;;;;;;8.73;6.07;;;;;;;-0.58;72.89;98015.97;4887426;29;20518;-82
2021/12/20 07:21:46;;;;;;;8.40;6.47;;;;;;;-0.46;73.23;98006.56;4919179;29;20040;-85
2021/12/20 07:24:12;;;;;;;25.95;6.28;;;;;;;-0.38;72.47;98005.19;4903231;29;20047;-87
2021/12/20 07:26:40;;;;;;;8.20;5.45;;;;;;;-0.55;72.81;98026.31;4887392;29;20044;-83
2021/12/20 07:29:06;;;;;;;9.93;5.80;;;;;;;-0.51;73.20;97998.94;4937218;29;20047;-89
2021/12/20 07:31:32;;;;;;;13.10;5.38;;;;;;;-0.47;72.93;97995.22;4939568;29;20055;-89
2021/12/20 07:33:58;;;;;;;6.68;5.10;;;;;;;-0.60;72.93;97999.44;4908027;29;20519;-88
2021/12/20 07:36:24;;;;;;;9.07;4.53;;;;;;;-0.67;73.21;98025.22;4891384;29;20062;-85
2021/12/20 07:38:51;;;;;;;10.27;5.15;;;;;;;-0.71;73.84;98022.81;4906247;29;20452;-85
2021/12/20 07:41:18;;;;;;;6.07;4.30;;;;;;;-0.71;73.22;98007.94;4922029;29;20056;-80
2021/12/20 07:43:46;;;;;;;7.38;4.78;;;;;;;-0.69;73.64;98013.09;4921661;29;20048;-82
2021/12/20 07:46:12;;;;;;;9.75;5.75;;;;;;;-0.71;73.77;98012.31;4892615;29;20046;-84
2021/12/20 07:48:38;;;;;;;10.65;5.20;;;;;;;-0.77;73.64;98008.28;4921837;29;20056;-80
2021/12/20 07:51:04;;;;;;;9.05;4.95;;;;;;;-0.76;73.67;98000.31;4891826;29;20071;-83
2021/12/20 07:53:31;;;;;;;7.97;5.57;;;;;;;-0.81;74.33;98012.00;4903955;29;20059;-81
2021/12/20 07:55:57;;;;;;;8.70;5.20;;;;;;;-0.83;74.51;98003.34;4923236;29;20048;-84
2021/12/20 07:58:23;;;;;;;10.48;6.25;;;;;;;-0.94;74.81;98014.47;4925332;29;20102;-85
2021/12/20 08:00:49;;;;;;;13.23;7.40;;;;;;;-0.87;75.07;98007.94;4923336;29;20468;-82
2021/12/20 08:03:16;;;;;;;8.98;5.68;;;;;;;-0.95;74.89;98004.03;4924328;29;20495;-90
2021/12/20 08:05:43;;;;;;;7.88;5.15;;;;;;;-0.87;74.87;98000.06;4906142;29;20082;-84
2021/12/20 08:08:09;;;;;;;11.60;4.75;;;;;;;-0.80;74.50;98004.03;4924664;29;20417;-82
2021/12/20 08:10:35;;;;;;;7.55;5.15;;;;;;;-0.81;74.68;98018.09;4923323;29;20099;-84
2021/12/20 08:13:01;;;;;;;9.30;5.63;;;;;;;-0.80;74.63;97998.78;4907258;29;20043;-90
2021/12/20 08:15:28;;;;;;;6.55;4.78;;;;;;;-0.75;75.08;98006.44;4926026;29;20051;-86
2021/12/20 08:17:54;;;;;;;6.40;5.22;;;;;;;-0.73;74.81;98015.88;4924054;29;20046;-86
2021/12/20 08:20:20;;;;;;;10.18;5.55;;;;;;;-0.70;74.69;98021.91;4912599;29;20054;-84
2021/12/20 08:22:47;;;;;;;10.13;5.65;;;;;;;-0.80;75.23;98013.69;4908849;29;20040;-85
2021/12/20 08:25:13;;;;;;;8.30;5.40;;;;;;;-0.84;74.86;98007.78;4922176;29;20467;-85
2021/12/20 08:27:39;;;;;;;10.48;6.18;;;;;;;-0.77;75.27;98019.63;4922206;29;20095;-83
2021/12/20 08:30:06;;;;;;;8.82;5.47;;;;;;;-0.73;74.72;97994.06;4910886;29;20504;-83
2021/12/20 08:32:32;;;;;;;7.55;5.53;;;;;;;-0.79;74.42;97991.75;4918477;29;20063;-83
2021/12/20 08:34:58;;;;;;;7.32;5.55;;;;;;;-0.85;74.85;97992.97;4917993;29;20492;-83
2021/12/20 08:37:25;;;;;;;6.88;5.35;;;;;;;-0.76;75.24;98002.94;4918289;29;20072;-85
2021/12/20 08:39:51;;;;;;;7.65;5.60;;;;;;;-0.67;74.64;97990.25;4917432;29;20080;-83
2021/12/20 08:42:17;;;;;;;7.35;5.60;;;;;;;-0.64;74.17;98001.44;4918368;29;20563;-82
2021/12/20 08:44:43;;;;;;;7.18;5.15;;;;;;;-0.59;74.78;97990.66;4917774;29;20048;-84
2021/12/20 08:47:09;;;;;;;6.63;5.03;;;;;;;-0.58;74.72;97995.81;4902274;29;20047;-84
2021/12/20 08:49:35;;;;;;;7.05;5.25;;;;;;;-0.81;74.73;97981.38;4902563;29;20042;-83
2021/12/20 08:52:01;;;;;;;7.10;5.28;;;;;;;-0.71;75.26;97980.84;4902200;29;20062;-81
2021/12/20 08:54:29;;;;;;;7.60;5.57;;;;;;;-0.82;75.42;97990.19;4887766;29;20040;-82
2021/12/20 08:56:56;;;;;;;6.53;4.80;;;;;;;-0.86;75.39;97978.16;4903837;29;20058;-79
2021/12/20 08:59:22;;;;;;;8.30;5.78;;;;;;;-0.78;75.41;97985.59;4902977;29;20436;-82
2021/12/20 09:01:48;;;;;;;16.85;8.40;;;;;;;-0.93;75.65;97979.44;4921899;29;20063;-82
2021/12/20 09:04:15;;;;;;;11.27;8.02;;;;;;;-0.84;75.42;97994.66;4931114;29;20044;-82
2021/12/20 09:06:42;;;;;;;15.38;7.15;;;;;;;-0.76;75.23;98010.81;4896005;29;20468;-80
2021/12/20 09:09:10;;;;;;;8.57;6.13;;;;;;;-0.81;75.57;97989.25;4902299;29;20138;-80
2021/12/20 09:11:39;;;;;;;9.23;6.63;;;;;;;-0.80;75.25;97993.53;4917565;29;20488;-81
2021/12/20 09:14:05;;;;;;;15.63;8.88;;;;;;;-0.84;75.27;98007.78;4901779;29;20095;-80
2021/12/20 09:16:31;;;;;;;15.95;10.10;;;;;;;-0.88;75.33;97998.38;4886201;29;20048;-84
2021/12/20 09:18:58;;;;;;;15.98;9.13;;;;;;;-0.87;76.27;97994.81;4901948;29;20052;-82
2021/12/20 09:21:24;;;;;;;10.27;6.82;;;;;;;-0.74;75.65;98008.97;4916883;29;20051;-81
2021/12/20 09:23:50;;;;;;;13.95;7.57;;;;;;;-0.71;75.77;97986.97;4904856;29;20403;-84
2021/12/20 09:26:16;;;;;;;13.25;7.70;;;;;;;-0.62;75.29;98011.84;4920167;29;20044;-80
2021/12/20 09:28:42;;;;;;;15.05;7.88;;;;;;;-0.60;74.98;97994.19;4920258;29;20047;-80
2021/12/20 09:31:08;;;;;;;16.58;8.63;;;;;;;-0.62;75.38;98011.84;4920453;29;20500;-83
2021/12/20 09:33:34;;;;;;;16.30;10.13;;;;;;;-0.54;75.19;98005.22;4920682;29;20071;-82
2021/12/20 09:36:01;;;;;;;20.70;10.93;;;;;;;-0.73;75.44;98012.44;4900977;29;20047;-87
2021/12/20 09:38:29;;;;;;;18.55;10.85;;;;;;;-0.67;75.28;97998.13;4893940;29;20079;-87
2021/12/20 09:43:45;;;;;;;16.48;9.07;;;;;;;-0.71;75.30;98002.69;4891652;29;20130;-88
2021/12/20 09:46:12;;;;;;;17.48;10.43;;;;;;;-0.54;75.31;98007.00;4905371;29;20039;-85
2021/12/20 09:48:38;;;;;;;17.85;11.02;;;;;;;-0.48;75.21;98003.19;4873820;29;20055;-83
2021/12/20 09:51:05;;;;;;;21.25;10.23;;;;;;;-0.40;74.73;97999.19;4888744;29;20114;-83
2021/12/20 09:53:31;;;;;;;21.63;11.77;;;;;;;-0.45;74.55;98003.00;4889165;29;20055;-83
2021/12/20 09:55:57;;;;;;;24.95;13.50;;;;;;;-0.54;74.92;97994.72;4873285;29;20051;-85
2021/12/20 09:58:23;;;;;;;20.23;13.25;;;;;;;-0.47;75.02;98002.25;4919746;29;20073;-81
2021/12/20 10:00:51;;;;;;;21.40;11.45;;;;;;;-0.59;74.87;97990.66;4888410;29;20043;-81
2021/12/20 10:03:24;;;;;;;23.85;13.63;;;;;;;-0.65;75.10;97999.72;4888596;29;20066;-82
2021/12/20 10:05:55;;;;;;;20.10;11.27;;;;;;;-0.59;75.24;98006.41;4935778;29;20130;-84
2021/12/20 10:08:31;;;;;;;18.35;11.32;;;;;;;-0.43;75.03;98001.97;4904775;29;20392;-83
2021/12/20 10:10:57;;;;;;;15.50;9.73;;;;;;;-0.35;74.73;98002.38;4921442;29;20566;-82
2021/12/20 10:13:24;;;;;;;13.43;8.32;;;;;;;-0.32;74.63;98004.84;4903580;29;20070;-83
2021/12/20 10:15:50;;;;;;;12.90;8.25;;;;;;;-0.44;74.64;97979.28;4919464;29;20055;-82
2021/12/20 10:18:16;;;;;;;15.18;8.75;;;;;;;-0.51;75.14;97984.03;4903964;29;20416;-82
2021/12/20 10:20:48;;;;;;;15.90;9.32;;;;;;;-0.42;75.26;97971.31;4920009;29;20044;-82
2021/12/20 10:23:21;;;;;;;16.08;10.63;;;;;;;-0.44;75.27;98004.69;4919766;29;20048;-82
2021/12/20 10:25:49;;;;;;;15.02;9.35;;;;;;;-0.45;75.04;97988.13;4903827;29;20492;-84
2021/12/20 10:28:18;;;;;;;23.60;12.73;;;;;;;-0.51;75.39;97998.94;4888000;29;20043;-86
2021/12/20 10:30:49;;;;;;;32.90;14.70;;;;;;;-0.55;75.64;97987.78;4920023;29;20046;-82
2021/12/20 10:33:17;;;;;;;25.52;13.35;;;;;;;-0.50;75.89;97979.63;4889708;29;20103;-81
2021/12/20 10:35:49;;;;;;;17.75;9.52;;;;;;;-0.64;75.96;97993.56;4919806;29;20040;-81
2021/12/20 10:38:18;;;;;;;18.17;9.18;;;;;;;-0.62;76.14;97993.47;4888968;29;20043;-84
2021/12/20 10:40:53;;;;;;;19.20;10.25;;;;;;;-0.68;78.71;98006.91;4919008;29;20055;-84
2021/12/20 10:43:22;;;;;;;19.45;8.90;;;;;;;-0.69;77.28;97984.25;4880341;29;20512;-83
2021/12/20 10:45:50;;;;;;;19.65;10.27;;;;;;;-0.69;77.46;97986.84;4880567;29;20209;-83
2021/12/20 10:48:16;;;;;;;17.85;9.88;;;;;;;-0.70;77.66;97995.66;4895994;29;20104;-80
2021/12/20 10:50:44;;;;;;;15.70;9.10;;;;;;;-0.82;77.60;97970.97;4895518;29;20513;-82
2021/12/20 10:53:21;;;;;;;22.80;10.73;;;;;;;-0.76;77.75;97989.81;4880171;29;20425;-80
2021/12/20 10:56:06;;;;;;;23.58;11.70;;;;;;;-0.73;77.66;97994.91;4880513;29;20321;-79
2021/12/20 10:58:36;;;;;;;22.50;9.32;;;;;;;-0.73;77.82;98000.16;4864976;29;20044;-79
2021/12/20 11:01:03;;;;;;;13.57;8.57;;;;;;;-0.64;77.40;98005.81;4880051;29;20063;-82
2021/12/20 11:03:35;;;;;;;9.10;5.78;;;;;;;-0.69;77.41;97989.47;4879811;29;20131;-80
2021/12/20 11:09:05;;;;;;;9.70;6.00;;;;;;;-0.70;77.01;97995.66;4864575;29;20071;-80
2021/12/20 11:11:35;;;;;;;10.25;5.70;;;;;;;-0.73;77.36;98004.56;4880143;29;20048;-81
2021/12/20 11:14:02;;;;;;;12.13;7.35;;;;;;;-0.68;77.02;98009.53;4864340;29;20528;-80
2021/12/20 11:16:33;;;;;;;11.60;7.07;;;;;;;-0.76;77.53;97992.44;4879917;29;20048;-82
2021/12/20 11:19:14;;;;;;;11.68;6.32;;;;;;;-0.75;77.08;98002.03;4880411;29;20068;-79
2021/12/20 11:21:55;;;;;;;12.55;7.18;;;;;;;-0.71;77.60;98004.44;4929481;29;20051;-80
2021/12/20 11:24:29;;;;;;;10.07;6.43;;;;;;;-0.68;77.48;97997.25;4918536;29;20044;-83
2021/12/20 11:26:55;;;;;;;13.10;7.68;;;;;;;-0.62;77.34;98001.34;4887383;29;20047;-81
2021/12/20 11:29:21;;;;;;;14.98;7.82;;;;;;;-0.65;77.66;98006.75;4918941;29;20087;-83
2021/12/20 11:31:48;;;;;;;12.43;8.23;;;;;;;-0.65;77.54;98004.13;4919378;29;20086;-78
2021/12/20 11:34:14;;;;;;;13.23;7.78;;;;;;;-0.63;78.25;97999.66;4903039;29;20051;-82
2021/12/20 11:36:40;;;;;;;17.40;9.18;;;;;;;-0.61;77.99;97998.59;4902887;29;20475;-82
2021/12/20 11:39:10;;;;;;;18.80;7.65;;;;;;;-0.59;77.65;98011.66;4934191;29;20046;-81
2021/12/20 11:41:36;;;;;;;18.95;9.60;;;;;;;-0.54;77.71;97999.13;4903746;29;20139;-80